sensor_id;sensor_type;location;lat;lon;timestamp;P1;durP1;ratioP1;P2;durP2;ratioP2
5052;SDS011;2545;50.892;5.740;2022-12-18T00:00:20;24.40;;;14.60;;
5052;SDS011;2545;50.892;5.740;2022-12-18T00:02:45;32.03;;;14.50;;
5052;SDS011;2545;50.892;5.740;2022-12-18T00:05:11;25.10;;;13.17;;
5052;SDS011;2545;50.892;5.740;2022-12-18T00:07:36;30.23;;;14.43;;
5052;SDS011;2545;50.892;5.740;2022-12-18T00:10:02;26.93;;;13.23;;
5052;SDS011;2545;50.892;5.740;2022-12-18T00:12:28;27.87;;;12.70;;
5052;SDS011;2545;50.892;5.740;2022-12-18T00:14:53;23.03;;;12.07;;
5052;SDS011;2545;50.892;5.740;2022-12-18T00:17:18;29.43;;;13.23;;
5052;SDS011;2545;50.892;5.740;2022-12-18T00:19:44;22.70;;;11.90;;
5052;SDS011;2545;50.892;5.740;2022-12-18T00:22:09;31.67;;;14.80;;
5052;SDS011;2545;50.892;5.740;2022-12-18T00:24:34;20.73;;;12.00;;
5052;SDS011;2545;50.892;5.740;2022-12-18T00:27:00;20.77;;;10.43;;
5052;SDS011;2545;50.892;5.740;2022-12-18T00:29:25;21.03;;;11.97;;
5052;SDS011;2545;50.892;5.740;2022-12-18T00:31:50;19.03;;;11.43;;
5052;SDS011;2545;50.892;5.740;2022-12-18T00:34:16;22.63;;;12.23;;
5052;SDS011;2545;50.892;5.740;2022-12-18T00:36:41;25.33;;;12.03;;
5052;SDS011;2545;50.892;5.740;2022-12-18T00:39:07;25.77;;;11.80;;
5052;SDS011;2545;50.892;5.740;2022-12-18T00:41:32;29.10;;;12.17;;
5052;SDS011;2545;50.892;5.740;2022-12-18T00:44:17;21.03;;;9.60;;
5052;SDS011;2545;50.892;5.740;2022-12-18T00:46:43;23.67;;;10.83;;
5052;SDS011;2545;50.892;5.740;2022-12-18T00:49:09;24.17;;;10.13;;
5052;SDS011;2545;50.892;5.740;2022-12-18T00:51:37;22.90;;;11.10;;
5052;SDS011;2545;50.892;5.740;2022-12-18T00:54:03;31.63;;;11.83;;
5052;SDS011;2545;50.892;5.740;2022-12-18T00:56:28;16.10;;;10.37;;
5052;SDS011;2545;50.892;5.740;2022-12-18T00:58:54;15.73;;;9.13;;
5052;SDS011;2545;50.892;5.740;2022-12-18T01:01:19;17.57;;;9.87;;
5052;SDS011;2545;50.892;5.740;2022-12-18T01:03:44;19.43;;;10.07;;
5052;SDS011;2545;50.892;5.740;2022-12-18T01:06:11;19.63;;;10.00;;
5052;SDS011;2545;50.892;5.740;2022-12-18T01:08:38;21.50;;;11.00;;
5052;SDS011;2545;50.892;5.740;2022-12-18T01:11:10;18.13;;;11.23;;
5052;SDS011;2545;50.892;5.740;2022-12-18T01:13:37;24.80;;;11.60;;
5052;SDS011;2545;50.892;5.740;2022-12-18T01:16:04;20.20;;;9.97;;
5052;SDS011;2545;50.892;5.740;2022-12-18T01:18:30;20.30;;;10.97;;
5052;SDS011;2545;50.892;5.740;2022-12-18T01:20:55;21.97;;;11.10;;
5052;SDS011;2545;50.892;5.740;2022-12-18T01:23:20;16.40;;;10.40;;
5052;SDS011;2545;50.892;5.740;2022-12-18T01:25:46;19.73;;;10.10;;
5052;SDS011;2545;50.892;5.740;2022-12-18T01:28:11;24.73;;;11.20;;
5052;SDS011;2545;50.892;5.740;2022-12-18T01:30:37;15.60;;;8.60;;
5052;SDS011;2545;50.892;5.740;2022-12-18T01:33:04;21.87;;;10.90;;
5052;SDS011;2545;50.892;5.740;2022-12-18T01:35:29;22.30;;;10.30;;
5052;SDS011;2545;50.892;5.740;2022-12-18T01:37:55;25.00;;;10.60;;
5052;SDS011;2545;50.892;5.740;2022-12-18T01:40:20;21.93;;;10.33;;
5052;SDS011;2545;50.892;5.740;2022-12-18T01:42:50;18.57;;;9.80;;
5052;SDS011;2545;50.892;5.740;2022-12-18T01:50:33;21.03;;;10.50;;
5052;SDS011;2545;50.892;5.740;2022-12-18T01:53:06;19.60;;;11.00;;
5052;SDS011;2545;50.892;5.740;2022-12-18T01:55:46;19.30;;;10.03;;
5052;SDS011;2545;50.892;5.740;2022-12-18T01:58:15;20.77;;;11.60;;
5052;SDS011;2545;50.892;5.740;2022-12-18T02:00:41;16.07;;;8.80;;
5052;SDS011;2545;50.892;5.740;2022-12-18T02:03:07;19.40;;;10.77;;
5052;SDS011;2545;50.892;5.740;2022-12-18T02:08:33;25.23;;;10.43;;
5052;SDS011;2545;50.892;5.740;2022-12-18T02:14:08;18.07;;;10.20;;
5052;SDS011;2545;50.892;5.740;2022-12-18T02:21:56;19.30;;;10.20;;
5052;SDS011;2545;50.892;5.740;2022-12-18T02:24:35;23.33;;;11.50;;
5052;SDS011;2545;50.892;5.740;2022-12-18T02:27:07;22.23;;;11.23;;
5052;SDS011;2545;50.892;5.740;2022-12-18T02:32:06;24.33;;;10.50;;
5052;SDS011;2545;50.892;5.740;2022-12-18T02:34:37;14.17;;;8.90;;
5052;SDS011;2545;50.892;5.740;2022-12-18T02:37:05;17.93;;;10.33;;
5052;SDS011;2545;50.892;5.740;2022-12-18T02:39:34;19.00;;;10.40;;
5052;SDS011;2545;50.892;5.740;2022-12-18T02:42:02;20.47;;;10.30;;
5052;SDS011;2545;50.892;5.740;2022-12-18T02:44:33;21.73;;;10.90;;
5052;SDS011;2545;50.892;5.740;2022-12-18T02:47:00;20.27;;;10.00;;
5052;SDS011;2545;50.892;5.740;2022-12-18T02:57:05;19.97;;;9.30;;
5052;SDS011;2545;50.892;5.740;2022-12-18T03:00:01;24.17;;;9.60;;
5052;SDS011;2545;50.892;5.740;2022-12-18T03:02:37;20.83;;;10.53;;
5052;SDS011;2545;50.892;5.740;2022-12-18T03:05:15;22.63;;;10.00;;
5052;SDS011;2545;50.892;5.740;2022-12-18T03:07:47;22.37;;;9.20;;
5052;SDS011;2545;50.892;5.740;2022-12-18T03:10:19;18.70;;;9.40;;
5052;SDS011;2545;50.892;5.740;2022-12-18T03:12:56;23.40;;;10.73;;
5052;SDS011;2545;50.892;5.740;2022-12-18T03:15:34;20.83;;;9.40;;
5052;SDS011;2545;50.892;5.740;2022-12-18T03:18:04;18.07;;;10.00;;
5052;SDS011;2545;50.892;5.740;2022-12-18T03:20:34;16.00;;;8.23;;
5052;SDS011;2545;50.892;5.740;2022-12-18T03:23:07;15.80;;;9.40;;
5052;SDS011;2545;50.892;5.740;2022-12-18T03:25:36;14.37;;;8.60;;
5052;SDS011;2545;50.892;5.740;2022-12-18T03:28:06;20.70;;;8.93;;
5052;SDS011;2545;50.892;5.740;2022-12-18T03:30:37;15.33;;;7.83;;
5052;SDS011;2545;50.892;5.740;2022-12-18T03:33:09;16.13;;;7.67;;
5052;SDS011;2545;50.892;5.740;2022-12-18T03:35:39;14.80;;;8.17;;
5052;SDS011;2545;50.892;5.740;2022-12-18T03:38:07;17.13;;;8.40;;
5052;SDS011;2545;50.892;5.740;2022-12-18T03:40:36;16.60;;;8.53;;
5052;SDS011;2545;50.892;5.740;2022-12-18T03:43:20;15.13;;;8.60;;
5052;SDS011;2545;50.892;5.740;2022-12-18T03:45:54;14.37;;;8.30;;
5052;SDS011;2545;50.892;5.740;2022-12-18T03:48:32;19.93;;;10.20;;
5052;SDS011;2545;50.892;5.740;2022-12-18T03:51:39;14.70;;;8.80;;
5052;SDS011;2545;50.892;5.740;2022-12-18T03:53:59;23.40;;;12.17;;
5052;SDS011;2545;50.892;5.740;2022-12-18T03:56:29;21.53;;;11.40;;
5052;SDS011;2545;50.892;5.740;2022-12-18T03:58:58;29.03;;;11.43;;
5052;SDS011;2545;50.892;5.740;2022-12-18T04:01:34;27.80;;;11.17;;
5052;SDS011;2545;50.892;5.740;2022-12-18T04:04:03;18.90;;;10.40;;
5052;SDS011;2545;50.892;5.740;2022-12-18T04:06:30;23.77;;;12.27;;
5052;SDS011;2545;50.892;5.740;2022-12-18T04:08:59;20.77;;;11.10;;
5052;SDS011;2545;50.892;5.740;2022-12-18T04:11:25;24.47;;;11.53;;
5052;SDS011;2545;50.892;5.740;2022-12-18T04:13:50;28.43;;;12.77;;
5052;SDS011;2545;50.892;5.740;2022-12-18T04:16:21;22.47;;;11.10;;
5052;SDS011;2545;50.892;5.740;2022-12-18T04:18:46;25.10;;;11.63;;
5052;SDS011;2545;50.892;5.740;2022-12-18T04:21:12;23.80;;;12.43;;
5052;SDS011;2545;50.892;5.740;2022-12-18T04:23:37;19.73;;;10.50;;
5052;SDS011;2545;50.892;5.740;2022-12-18T04:26:02;25.33;;;11.53;;
5052;SDS011;2545;50.892;5.740;2022-12-18T04:28:27;23.50;;;12.87;;
5052;SDS011;2545;50.892;5.740;2022-12-18T04:30:53;23.87;;;11.80;;
5052;SDS011;2545;50.892;5.740;2022-12-18T04:33:18;22.60;;;11.70;;
5052;SDS011;2545;50.892;5.740;2022-12-18T04:35:44;27.30;;;13.20;;
5052;SDS011;2545;50.892;5.740;2022-12-18T04:38:09;28.37;;;12.90;;
5052;SDS011;2545;50.892;5.740;2022-12-18T04:40:35;23.23;;;11.70;;
5052;SDS011;2545;50.892;5.740;2022-12-18T04:43:01;26.23;;;11.63;;
5052;SDS011;2545;50.892;5.740;2022-12-18T04:45:27;27.37;;;12.30;;
5052;SDS011;2545;50.892;5.740;2022-12-18T04:47:52;20.90;;;10.77;;
5052;SDS011;2545;50.892;5.740;2022-12-18T04:50:18;24.87;;;13.23;;
5052;SDS011;2545;50.892;5.740;2022-12-18T04:52:43;25.33;;;12.40;;
5052;SDS011;2545;50.892;5.740;2022-12-18T04:55:08;24.37;;;11.33;;
5052;SDS011;2545;50.892;5.740;2022-12-18T04:57:34;28.17;;;11.87;;
5052;SDS011;2545;50.892;5.740;2022-12-18T04:59:59;19.00;;;10.60;;
5052;SDS011;2545;50.892;5.740;2022-12-18T05:02:24;20.40;;;9.40;;
5052;SDS011;2545;50.892;5.740;2022-12-18T05:04:50;40.37;;;14.90;;
5052;SDS011;2545;50.892;5.740;2022-12-18T05:07:15;26.40;;;13.87;;
5052;SDS011;2545;50.892;5.740;2022-12-18T05:09:40;24.10;;;11.93;;
5052;SDS011;2545;50.892;5.740;2022-12-18T05:12:06;16.50;;;10.10;;
5052;SDS011;2545;50.892;5.740;2022-12-18T05:14:31;20.00;;;10.70;;
5052;SDS011;2545;50.892;5.740;2022-12-18T05:16:56;20.83;;;10.90;;
5052;SDS011;2545;50.892;5.740;2022-12-18T05:19:22;17.97;;;8.43;;
5052;SDS011;2545;50.892;5.740;2022-12-18T05:21:47;26.03;;;10.80;;
5052;SDS011;2545;50.892;5.740;2022-12-18T05:24:12;24.20;;;11.83;;
5052;SDS011;2545;50.892;5.740;2022-12-18T05:26:38;19.63;;;9.90;;
5052;SDS011;2545;50.892;5.740;2022-12-18T05:29:03;25.63;;;11.03;;
5052;SDS011;2545;50.892;5.740;2022-12-18T05:31:28;20.27;;;10.17;;
5052;SDS011;2545;50.892;5.740;2022-12-18T05:33:54;21.40;;;9.87;;
5052;SDS011;2545;50.892;5.740;2022-12-18T05:36:19;24.43;;;11.67;;
5052;SDS011;2545;50.892;5.740;2022-12-18T05:38:44;24.03;;;11.13;;
5052;SDS011;2545;50.892;5.740;2022-12-18T05:41:10;16.93;;;8.90;;
5052;SDS011;2545;50.892;5.740;2022-12-18T05:43:36;20.70;;;10.93;;
5052;SDS011;2545;50.892;5.740;2022-12-18T05:46:03;20.67;;;10.20;;
5052;SDS011;2545;50.892;5.740;2022-12-18T05:48:33;15.80;;;10.07;;
5052;SDS011;2545;50.892;5.740;2022-12-18T05:51:03;19.13;;;11.50;;
5052;SDS011;2545;50.892;5.740;2022-12-18T05:53:31;15.40;;;9.97;;
5052;SDS011;2545;50.892;5.740;2022-12-18T05:55:59;19.93;;;11.80;;
5052;SDS011;2545;50.892;5.740;2022-12-18T05:58:25;17.80;;;9.83;;
5052;SDS011;2545;50.892;5.740;2022-12-18T06:00:51;21.77;;;11.00;;
5052;SDS011;2545;50.892;5.740;2022-12-18T06:03:16;18.93;;;10.13;;
5052;SDS011;2545;50.892;5.740;2022-12-18T06:05:42;19.43;;;11.13;;
5052;SDS011;2545;50.892;5.740;2022-12-18T06:08:09;19.07;;;10.30;;
5052;SDS011;2545;50.892;5.740;2022-12-18T06:10:35;17.80;;;10.07;;
5052;SDS011;2545;50.892;5.740;2022-12-18T06:13:01;23.20;;;9.50;;
5052;SDS011;2545;50.892;5.740;2022-12-18T06:15:27;23.27;;;10.40;;
5052;SDS011;2545;50.892;5.740;2022-12-18T06:17:52;19.80;;;11.20;;
5052;SDS011;2545;50.892;5.740;2022-12-18T06:20:18;22.30;;;11.67;;
5052;SDS011;2545;50.892;5.740;2022-12-18T06:22:44;26.13;;;12.20;;
5052;SDS011;2545;50.892;5.740;2022-12-18T06:25:09;24.03;;;10.07;;
5052;SDS011;2545;50.892;5.740;2022-12-18T06:27:35;26.33;;;11.83;;
5052;SDS011;2545;50.892;5.740;2022-12-18T06:30:00;18.23;;;10.40;;
5052;SDS011;2545;50.892;5.740;2022-12-18T06:32:26;21.60;;;10.73;;
5052;SDS011;2545;50.892;5.740;2022-12-18T06:34:52;24.07;;;10.87;;
5052;SDS011;2545;50.892;5.740;2022-12-18T06:37:18;22.77;;;10.80;;
5052;SDS011;2545;50.892;5.740;2022-12-18T06:39:44;14.23;;;9.53;;
5052;SDS011;2545;50.892;5.740;2022-12-18T06:42:09;16.07;;;9.20;;
5052;SDS011;2545;50.892;5.740;2022-12-18T06:44:34;20.97;;;11.17;;
5052;SDS011;2545;50.892;5.740;2022-12-18T06:47:00;15.60;;;10.50;;
5052;SDS011;2545;50.892;5.740;2022-12-18T06:49:25;17.53;;;9.53;;
5052;SDS011;2545;50.892;5.740;2022-12-18T06:51:50;18.90;;;10.80;;
5052;SDS011;2545;50.892;5.740;2022-12-18T06:54:16;17.87;;;10.03;;
5052;SDS011;2545;50.892;5.740;2022-12-18T06:56:42;25.97;;;12.07;;
5052;SDS011;2545;50.892;5.740;2022-12-18T06:59:09;18.77;;;10.00;;
5052;SDS011;2545;50.892;5.740;2022-12-18T07:01:34;22.83;;;11.10;;
5052;SDS011;2545;50.892;5.740;2022-12-18T07:04:00;23.17;;;11.53;;
5052;SDS011;2545;50.892;5.740;2022-12-18T07:06:25;21.57;;;10.30;;
5052;SDS011;2545;50.892;5.740;2022-12-18T07:08:51;17.87;;;10.43;;
5052;SDS011;2545;50.892;5.740;2022-12-18T07:11:17;18.63;;;10.00;;
5052;SDS011;2545;50.892;5.740;2022-12-18T07:13:44;16.93;;;9.73;;
5052;SDS011;2545;50.892;5.740;2022-12-18T07:16:19;17.27;;;8.67;;
5052;SDS011;2545;50.892;5.740;2022-12-18T07:18:45;22.90;;;10.03;;
5052;SDS011;2545;50.892;5.740;2022-12-18T07:21:12;17.07;;;10.20;;
5052;SDS011;2545;50.892;5.740;2022-12-18T07:23:41;14.20;;;8.53;;
5052;SDS011;2545;50.892;5.740;2022-12-18T07:26:14;20.67;;;9.20;;
5052;SDS011;2545;50.892;5.740;2022-12-18T07:28:41;18.20;;;10.17;;
5052;SDS011;2545;50.892;5.740;2022-12-18T07:31:11;14.90;;;8.80;;
5052;SDS011;2545;50.892;5.740;2022-12-18T07:33:38;24.47;;;12.00;;
5052;SDS011;2545;50.892;5.740;2022-12-18T07:36:03;22.50;;;10.00;;
5052;SDS011;2545;50.892;5.740;2022-12-18T07:38:30;21.93;;;10.60;;
5052;SDS011;2545;50.892;5.740;2022-12-18T07:41:03;23.03;;;12.10;;
5052;SDS011;2545;50.892;5.740;2022-12-18T07:43:33;19.23;;;10.70;;
5052;SDS011;2545;50.892;5.740;2022-12-18T07:45:59;22.87;;;9.80;;
5052;SDS011;2545;50.892;5.740;2022-12-18T07:48:25;18.90;;;10.60;;
5052;SDS011;2545;50.892;5.740;2022-12-18T07:50:50;21.53;;;10.57;;
5052;SDS011;2545;50.892;5.740;2022-12-18T07:53:16;18.00;;;9.60;;
5052;SDS011;2545;50.892;5.740;2022-12-18T07:55:41;24.57;;;10.03;;
5052;SDS011;2545;50.892;5.740;2022-12-18T07:58:07;15.90;;;9.43;;
5052;SDS011;2545;50.892;5.740;2022-12-18T08:00:33;20.40;;;9.60;;
5052;SDS011;2545;50.892;5.740;2022-12-18T08:02:59;22.37;;;10.20;;
5052;SDS011;2545;50.892;5.740;2022-12-18T08:05:25;21.10;;;10.60;;
5052;SDS011;2545;50.892;5.740;2022-12-18T08:07:51;16.80;;;9.70;;
5052;SDS011;2545;50.892;5.740;2022-12-18T08:10:16;18.80;;;10.30;;
5052;SDS011;2545;50.892;5.740;2022-12-18T08:12:42;19.87;;;10.20;;
5052;SDS011;2545;50.892;5.740;2022-12-18T08:15:07;20.27;;;10.40;;
5052;SDS011;2545;50.892;5.740;2022-12-18T08:17:33;27.87;;;12.27;;
5052;SDS011;2545;50.892;5.740;2022-12-18T08:19:58;20.80;;;10.53;;
5052;SDS011;2545;50.892;5.740;2022-12-18T08:22:23;20.33;;;11.03;;
5052;SDS011;2545;50.892;5.740;2022-12-18T08:24:49;22.33;;;10.53;;
5052;SDS011;2545;50.892;5.740;2022-12-18T08:27:14;24.97;;;13.83;;
5052;SDS011;2545;50.892;5.740;2022-12-18T08:29:40;19.30;;;11.47;;
5052;SDS011;2545;50.892;5.740;2022-12-18T08:32:05;22.90;;;12.30;;
5052;SDS011;2545;50.892;5.740;2022-12-18T08:34:30;21.97;;;11.63;;
5052;SDS011;2545;50.892;5.740;2022-12-18T08:36:56;17.97;;;11.10;;
5052;SDS011;2545;50.892;5.740;2022-12-18T08:39:21;21.93;;;12.50;;
5052;SDS011;2545;50.892;5.740;2022-12-18T08:41:46;27.27;;;11.67;;
5052;SDS011;2545;50.892;5.740;2022-12-18T08:44:32;29.53;;;15.47;;
5052;SDS011;2545;50.892;5.740;2022-12-18T08:47:04;33.10;;;13.30;;
5052;SDS011;2545;50.892;5.740;2022-12-18T08:49:30;22.70;;;12.40;;
5052;SDS011;2545;50.892;5.740;2022-12-18T08:51:56;23.60;;;12.50;;
5052;SDS011;2545;50.892;5.740;2022-12-18T08:54:22;24.67;;;12.20;;
5052;SDS011;2545;50.892;5.740;2022-12-18T08:56:48;22.50;;;11.47;;
5052;SDS011;2545;50.892;5.740;2022-12-18T08:59:14;20.73;;;11.67;;
5052;SDS011;2545;50.892;5.740;2022-12-18T09:01:40;19.20;;;11.67;;
5052;SDS011;2545;50.892;5.740;2022-12-18T09:04:05;18.50;;;9.13;;
5052;SDS011;2545;50.892;5.740;2022-12-18T09:06:30;23.17;;;9.97;;
5052;SDS011;2545;50.892;5.740;2022-12-18T09:08:56;15.80;;;9.83;;
5052;SDS011;2545;50.892;5.740;2022-12-18T09:11:23;22.60;;;9.40;;
5052;SDS011;2545;50.892;5.740;2022-12-18T09:13:50;18.33;;;10.10;;
5052;SDS011;2545;50.892;5.740;2022-12-18T09:16:16;17.60;;;9.43;;
5052;SDS011;2545;50.892;5.740;2022-12-18T09:18:42;14.03;;;8.70;;
5052;SDS011;2545;50.892;5.740;2022-12-18T09:21:08;19.73;;;9.50;;
5052;SDS011;2545;50.892;5.740;2022-12-18T09:23:35;18.60;;;9.60;;
5052;SDS011;2545;50.892;5.740;2022-12-18T09:26:00;18.90;;;10.23;;
5052;SDS011;2545;50.892;5.740;2022-12-18T09:28:25;40.83;;;18.90;;
5052;SDS011;2545;50.892;5.740;2022-12-18T09:30:51;41.60;;;21.30;;
5052;SDS011;2545;50.892;5.740;2022-12-18T09:33:16;39.60;;;19.10;;
5052;SDS011;2545;50.892;5.740;2022-12-18T09:35:43;33.70;;;16.43;;
5052;SDS011;2545;50.892;5.740;2022-12-18T09:38:11;38.57;;;18.60;;
5052;SDS011;2545;50.892;5.740;2022-12-18T09:40:45;40.83;;;18.47;;
5052;SDS011;2545;50.892;5.740;2022-12-18T09:43:34;27.20;;;15.00;;
5052;SDS011;2545;50.892;5.740;2022-12-18T09:46:06;23.33;;;12.63;;
5052;SDS011;2545;50.892;5.740;2022-12-18T09:48:38;22.43;;;11.50;;
5052;SDS011;2545;50.892;5.740;2022-12-18T09:51:17;17.40;;;10.40;;
5052;SDS011;2545;50.892;5.740;2022-12-18T09:53:50;17.50;;;10.00;;
5052;SDS011;2545;50.892;5.740;2022-12-18T09:56:19;20.30;;;9.90;;
5052;SDS011;2545;50.892;5.740;2022-12-18T09:59:00;22.00;;;11.30;;
5052;SDS011;2545;50.892;5.740;2022-12-18T10:01:27;31.27;;;12.47;;
5052;SDS011;2545;50.892;5.740;2022-12-18T10:03:54;27.00;;;14.57;;
5052;SDS011;2545;50.892;5.740;2022-12-18T10:06:21;21.97;;;12.40;;
5052;SDS011;2545;50.892;5.740;2022-12-18T10:09:01;24.90;;;12.93;;
5052;SDS011;2545;50.892;5.740;2022-12-18T10:20:26;26.77;;;14.13;;
5052;SDS011;2545;50.892;5.740;2022-12-18T10:25:47;24.93;;;14.47;;
5052;SDS011;2545;50.892;5.740;2022-12-18T10:28:18;24.60;;;13.00;;
5052;SDS011;2545;50.892;5.740;2022-12-18T10:30:45;24.53;;;14.50;;
5052;SDS011;2545;50.892;5.740;2022-12-18T10:33:14;19.70;;;12.70;;
5052;SDS011;2545;50.892;5.740;2022-12-18T10:35:42;25.67;;;12.80;;
5052;SDS011;2545;50.892;5.740;2022-12-18T10:43:32;27.70;;;12.07;;
5052;SDS011;2545;50.892;5.740;2022-12-18T10:46:17;25.77;;;14.20;;
5052;SDS011;2545;50.892;5.740;2022-12-18T10:48:55;17.03;;;11.53;;
5052;SDS011;2545;50.892;5.740;2022-12-18T10:51:23;25.23;;;13.13;;
5052;SDS011;2545;50.892;5.740;2022-12-18T10:56:27;30.40;;;17.40;;
5052;SDS011;2545;50.892;5.740;2022-12-18T10:58:56;44.93;;;19.13;;
5052;SDS011;2545;50.892;5.740;2022-12-18T11:01:27;29.53;;;15.27;;
5052;SDS011;2545;50.892;5.740;2022-12-18T11:06:19;40.23;;;17.97;;
5052;SDS011;2545;50.892;5.740;2022-12-18T11:09:02;24.97;;;14.40;;
5052;SDS011;2545;50.892;5.740;2022-12-18T11:11:30;22.47;;;13.37;;
5052;SDS011;2545;50.892;5.740;2022-12-18T11:16:25;24.03;;;12.93;;
5052;SDS011;2545;50.892;5.740;2022-12-18T11:18:52;20.13;;;11.87;;
5052;SDS011;2545;50.892;5.740;2022-12-18T11:21:18;16.20;;;9.97;;
5052;SDS011;2545;50.892;5.740;2022-12-18T11:23:49;23.33;;;13.00;;
5052;SDS011;2545;50.892;5.740;2022-12-18T11:26:16;18.80;;;11.47;;
5052;SDS011;2545;50.892;5.740;2022-12-18T11:28:53;28.07;;;12.63;;
5052;SDS011;2545;50.892;5.740;2022-12-18T11:31:34;22.57;;;12.93;;
5052;SDS011;2545;50.892;5.740;2022-12-18T11:36:53;22.00;;;11.30;;
5052;SDS011;2545;50.892;5.740;2022-12-18T11:39:20;24.03;;;11.47;;
5052;SDS011;2545;50.892;5.740;2022-12-18T11:41:59;25.03;;;12.77;;
5052;SDS011;2545;50.892;5.740;2022-12-18T11:50:11;40.60;;;16.10;;
5052;SDS011;2545;50.892;5.740;2022-12-18T11:52:41;55.93;;;19.80;;
5052;SDS011;2545;50.892;5.740;2022-12-18T12:00:20;51.10;;;17.30;;
5052;SDS011;2545;50.892;5.740;2022-12-18T12:05:21;28.20;;;14.73;;
5052;SDS011;2545;50.892;5.740;2022-12-18T12:10:48;27.77;;;14.23;;
5052;SDS011;2545;50.892;5.740;2022-12-18T12:21:54;25.43;;;12.87;;
5052;SDS011;2545;50.892;5.740;2022-12-18T12:27:22;18.90;;;10.63;;
5052;SDS011;2545;50.892;5.740;2022-12-18T12:32:47;20.53;;;9.90;;
5052;SDS011;2545;50.892;5.740;2022-12-18T12:38:10;18.53;;;10.57;;
5052;SDS011;2545;50.892;5.740;2022-12-18T12:40:40;20.67;;;10.43;;
5052;SDS011;2545;50.892;5.740;2022-12-18T12:45:57;21.50;;;11.30;;
5052;SDS011;2545;50.892;5.740;2022-12-18T12:48:31;22.30;;;13.23;;
5052;SDS011;2545;50.892;5.740;2022-12-18T12:50:58;23.60;;;12.70;;
5052;SDS011;2545;50.892;5.740;2022-12-18T12:53:34;21.50;;;11.77;;
5052;SDS011;2545;50.892;5.740;2022-12-18T12:56:02;24.67;;;12.33;;
5052;SDS011;2545;50.892;5.740;2022-12-18T13:04:14;26.00;;;12.83;;
5052;SDS011;2545;50.892;5.740;2022-12-18T13:09:23;23.90;;;12.70;;
5052;SDS011;2545;50.892;5.740;2022-12-18T13:11:48;25.93;;;13.40;;
5052;SDS011;2545;50.892;5.740;2022-12-18T13:14:33;29.43;;;13.00;;
5052;SDS011;2545;50.892;5.740;2022-12-18T13:19:44;23.00;;;11.70;;
5052;SDS011;2545;50.892;5.740;2022-12-18T13:22:21;20.97;;;12.53;;
5052;SDS011;2545;50.892;5.740;2022-12-18T13:24:48;24.63;;;13.03;;
5052;SDS011;2545;50.892;5.740;2022-12-18T13:40:59;23.40;;;13.50;;
5052;SDS011;2545;50.892;5.740;2022-12-18T13:43:28;21.10;;;12.20;;
5052;SDS011;2545;50.892;5.740;2022-12-18T13:48:23;25.80;;;13.47;;
5052;SDS011;2545;50.892;5.740;2022-12-18T13:51:00;23.27;;;13.80;;
5052;SDS011;2545;50.892;5.740;2022-12-18T13:53:39;27.53;;;13.30;;
5052;SDS011;2545;50.892;5.740;2022-12-18T13:56:09;30.00;;;14.67;;
5052;SDS011;2545;50.892;5.740;2022-12-18T13:58:45;27.77;;;14.47;;
5052;SDS011;2545;50.892;5.740;2022-12-18T14:01:21;23.33;;;13.80;;
5052;SDS011;2545;50.892;5.740;2022-12-18T14:03:48;23.93;;;12.50;;
5052;SDS011;2545;50.892;5.740;2022-12-18T14:06:13;29.07;;;15.10;;
5052;SDS011;2545;50.892;5.740;2022-12-18T14:08:40;28.70;;;14.27;;
5052;SDS011;2545;50.892;5.740;2022-12-18T14:11:11;24.90;;;14.40;;
5052;SDS011;2545;50.892;5.740;2022-12-18T14:13:44;22.37;;;14.00;;
5052;SDS011;2545;50.892;5.740;2022-12-18T14:16:12;29.07;;;16.03;;
5052;SDS011;2545;50.892;5.740;2022-12-18T14:18:44;31.10;;;15.87;;
5052;SDS011;2545;50.892;5.740;2022-12-18T14:21:29;28.53;;;16.10;;
5052;SDS011;2545;50.892;5.740;2022-12-18T14:24:05;40.90;;;16.60;;
5052;SDS011;2545;50.892;5.740;2022-12-18T14:26:42;32.87;;;15.33;;
5052;SDS011;2545;50.892;5.740;2022-12-18T14:29:24;27.93;;;15.87;;
5052;SDS011;2545;50.892;5.740;2022-12-18T14:34:50;25.77;;;15.80;;
5052;SDS011;2545;50.892;5.740;2022-12-18T14:37:18;29.60;;;15.03;;
5052;SDS011;2545;50.892;5.740;2022-12-18T14:39:59;29.97;;;16.67;;
5052;SDS011;2545;50.892;5.740;2022-12-18T14:42:29;29.50;;;16.17;;
5052;SDS011;2545;50.892;5.740;2022-12-18T14:47:58;31.70;;;17.63;;
5052;SDS011;2545;50.892;5.740;2022-12-18T14:50:24;34.10;;;16.70;;
5052;SDS011;2545;50.892;5.740;2022-12-18T14:52:50;34.00;;;17.13;;
5052;SDS011;2545;50.892;5.740;2022-12-18T14:55:19;23.13;;;15.07;;
5052;SDS011;2545;50.892;5.740;2022-12-18T14:57:48;29.87;;;17.77;;
5052;SDS011;2545;50.892;5.740;2022-12-18T15:00:18;35.00;;;19.17;;
5052;SDS011;2545;50.892;5.740;2022-12-18T15:02:46;28.53;;;15.70;;
5052;SDS011;2545;50.892;5.740;2022-12-18T15:05:25;27.80;;;17.20;;
5052;SDS011;2545;50.892;5.740;2022-12-18T15:07:53;27.73;;;17.03;;
5052;SDS011;2545;50.892;5.740;2022-12-18T15:10:23;36.67;;;17.00;;
5052;SDS011;2545;50.892;5.740;2022-12-18T15:17:59;33.20;;;16.63;;
5052;SDS011;2545;50.892;5.740;2022-12-18T15:20:30;34.63;;;16.97;;
5052;SDS011;2545;50.892;5.740;2022-12-18T15:22:57;44.80;;;20.23;;
5052;SDS011;2545;50.892;5.740;2022-12-18T15:25:32;38.37;;;19.43;;
5052;SDS011;2545;50.892;5.740;2022-12-18T15:28:01;34.07;;;18.47;;
5052;SDS011;2545;50.892;5.740;2022-12-18T15:30:28;34.20;;;18.40;;
5052;SDS011;2545;50.892;5.740;2022-12-18T15:33:16;34.63;;;19.67;;
5052;SDS011;2545;50.892;5.740;2022-12-18T15:35:47;34.40;;;17.97;;
5052;SDS011;2545;50.892;5.740;2022-12-18T15:38:21;43.17;;;19.40;;
5052;SDS011;2545;50.892;5.740;2022-12-18T15:40:46;35.83;;;20.40;;
5052;SDS011;2545;50.892;5.740;2022-12-18T15:43:11;39.27;;;20.60;;
5052;SDS011;2545;50.892;5.740;2022-12-18T15:45:55;36.80;;;20.30;;
5052;SDS011;2545;50.892;5.740;2022-12-18T15:48:21;36.93;;;19.83;;
5052;SDS011;2545;50.892;5.740;2022-12-18T15:50:48;33.33;;;17.80;;
5052;SDS011;2545;50.892;5.740;2022-12-18T15:53:15;29.47;;;17.17;;
5052;SDS011;2545;50.892;5.740;2022-12-18T15:55:40;36.70;;;18.70;;
5052;SDS011;2545;50.892;5.740;2022-12-18T15:58:24;32.30;;;18.07;;
5052;SDS011;2545;50.892;5.740;2022-12-18T16:00:50;28.27;;;16.93;;
5052;SDS011;2545;50.892;5.740;2022-12-18T16:03:15;43.57;;;20.17;;
5052;SDS011;2545;50.892;5.740;2022-12-18T16:05:40;37.50;;;18.73;;
5052;SDS011;2545;50.892;5.740;2022-12-18T16:08:06;39.17;;;17.30;;
5052;SDS011;2545;50.892;5.740;2022-12-18T16:10:31;35.00;;;18.80;;
5052;SDS011;2545;50.892;5.740;2022-12-18T16:12:57;36.20;;;20.03;;
5052;SDS011;2545;50.892;5.740;2022-12-18T16:15:22;35.97;;;18.63;;
5052;SDS011;2545;50.892;5.740;2022-12-18T16:17:47;38.47;;;19.87;;
5052;SDS011;2545;50.892;5.740;2022-12-18T16:20:16;42.07;;;18.10;;
5052;SDS011;2545;50.892;5.740;2022-12-18T16:22:46;45.20;;;22.13;;
5052;SDS011;2545;50.892;5.740;2022-12-18T16:25:17;49.07;;;24.23;;
5052;SDS011;2545;50.892;5.740;2022-12-18T16:27:46;40.70;;;20.80;;
5052;SDS011;2545;50.892;5.740;2022-12-18T16:30:12;41.67;;;21.10;;
5052;SDS011;2545;50.892;5.740;2022-12-18T16:32:39;39.97;;;19.80;;
5052;SDS011;2545;50.892;5.740;2022-12-18T16:35:04;37.77;;;19.80;;
5052;SDS011;2545;50.892;5.740;2022-12-18T16:37:30;46.50;;;21.73;;
5052;SDS011;2545;50.892;5.740;2022-12-18T16:39:55;42.33;;;20.23;;
5052;SDS011;2545;50.892;5.740;2022-12-18T16:42:20;42.97;;;19.80;;
5052;SDS011;2545;50.892;5.740;2022-12-18T16:44:46;40.30;;;21.60;;
5052;SDS011;2545;50.892;5.740;2022-12-18T16:47:13;44.97;;;22.37;;
5052;SDS011;2545;50.892;5.740;2022-12-18T16:49:40;42.80;;;21.60;;
5052;SDS011;2545;50.892;5.740;2022-12-18T16:52:06;36.83;;;19.33;;
5052;SDS011;2545;50.892;5.740;2022-12-18T16:54:32;40.50;;;21.27;;
5052;SDS011;2545;50.892;5.740;2022-12-18T16:56:59;43.60;;;20.53;;
5052;SDS011;2545;50.892;5.740;2022-12-18T16:59:24;45.07;;;21.43;;
5052;SDS011;2545;50.892;5.740;2022-12-18T17:01:50;41.63;;;20.27;;
5052;SDS011;2545;50.892;5.740;2022-12-18T17:04:16;40.00;;;20.63;;
5052;SDS011;2545;50.892;5.740;2022-12-18T17:06:42;39.00;;;19.77;;